createdAt,value
2022-10-05T00:00:13.413Z,6.20
2022-10-05T00:03:18.734Z,6.20
2022-10-05T00:06:11.311Z,5.40
2022-10-05T00:09:24.981Z,5.67
2022-10-05T00:12:31.308Z,5.70
2022-10-05T00:15:25.780Z,5.70
2022-10-05T00:18:53.655Z,5.70
2022-10-05T00:21:59.263Z,5.80
2022-10-05T00:25:07.757Z,6.00
2022-10-05T00:28:02.320Z,6.13
2022-10-05T00:37:51.764Z,5.10
2022-10-05T00:41:01.394Z,5.40
2022-10-05T00:44:32.146Z,5.90
2022-10-05T00:47:38.168Z,6.37
2022-10-05T00:53:48.559Z,5.60
2022-10-05T00:56:59.124Z,5.70
2022-10-05T01:00:11.109Z,6.00
2022-10-05T01:03:14.473Z,6.03
2022-10-05T01:06:18.972Z,5.50
2022-10-05T01:09:22.547Z,6.17
2022-10-05T01:12:28.829Z,6.00
2022-10-05T01:15:34.652Z,6.10
2022-10-05T01:18:45.117Z,6.13
2022-10-05T01:22:01.001Z,5.80
2022-10-05T01:25:08.492Z,5.73
2022-10-05T01:28:18.492Z,5.87
2022-10-05T01:31:12.459Z,6.50
2022-10-05T01:34:35.935Z,5.93
2022-10-05T01:41:03.340Z,6.50
2022-10-05T01:44:05.510Z,5.30
2022-10-05T01:47:06.605Z,5.53
2022-10-05T01:50:05.433Z,6.03
2022-10-05T01:53:03.790Z,5.40
2022-10-05T01:56:05.519Z,5.80
2022-10-05T01:59:07.132Z,6.37
2022-10-05T02:02:19.306Z,6.63
2022-10-05T02:05:24.443Z,6.80
2022-10-05T02:08:30.660Z,6.13
2022-10-05T02:13:06.914Z,5.90
2022-10-05T02:15:00.814Z,5.90
2022-10-05T02:18:07.322Z,5.90
2022-10-05T02:21:09.946Z,6.37
2022-10-05T02:24:18.802Z,5.50
2022-10-05T02:27:34.648Z,6.00
2022-10-05T02:30:36.068Z,7.07
2022-10-05T02:33:57.747Z,5.93
2022-10-05T02:36:58.337Z,6.33
2022-10-05T02:40:10.579Z,6.33
2022-10-05T02:43:34.425Z,5.97
2022-10-05T02:46:45.867Z,5.90
2022-10-05T02:50:01.005Z,6.50
2022-10-05T02:56:53.175Z,6.53
2022-10-05T03:00:09.839Z,7.40
2022-10-05T03:06:35.370Z,6.10
2022-10-05T03:09:42.460Z,6.40
2022-10-05T03:16:01.564Z,6.87
2022-10-05T03:19:06.845Z,6.57
2022-10-05T03:22:21.596Z,6.83
2022-10-05T03:25:34.791Z,6.40
2022-10-05T03:28:54.604Z,7.10
2022-10-05T03:31:58.774Z,7.10
2022-10-05T03:38:31.268Z,7.10
2022-10-05T03:41:32.890Z,7.00
2022-10-05T03:44:59.522Z,7.03
2022-10-05T03:48:07.213Z,6.50
2022-10-05T03:51:32.083Z,7.10
2022-10-05T03:54:27.318Z,7.53
2022-10-05T03:57:45.266Z,7.23
2022-10-05T04:01:01.652Z,7.57
2022-10-05T04:07:46.569Z,7.23
2022-10-05T04:10:58.289Z,7.80
2022-10-05T04:14:01.551Z,7.90
2022-10-05T04:17:05.449Z,7.40
2022-10-05T04:20:17.883Z,7.33
2022-10-05T04:23:25.455Z,6.70
2022-10-05T04:26:27.801Z,7.20
2022-10-05T04:29:49.061Z,7.60
2022-10-05T04:32:49.634Z,7.20
2022-10-05T04:36:02.142Z,7.93
2022-10-05T04:39:32.276Z,7.83
2022-10-05T04:42:44.318Z,7.33
2022-10-05T04:46:00.726Z,7.60
2022-10-05T04:49:25.280Z,7.63
2022-10-05T04:52:31.532Z,7.73
2022-10-05T04:55:49.876Z,7.90
2022-10-05T04:58:55.389Z,8.33
2022-10-05T05:01:56.407Z,7.40
2022-10-05T05:05:30.801Z,8.07
2022-10-05T05:08:41.184Z,7.87
2022-10-05T05:11:49.725Z,7.40
2022-10-05T05:15:35.916Z,7.40
2022-10-05T05:18:46.452Z,7.93
2022-10-05T05:21:57.609Z,9.00
2022-10-05T05:25:04.487Z,8.77
2022-10-05T05:31:11.542Z,8.63
2022-10-05T05:37:53.485Z,8.63
2022-10-05T05:41:09.748Z,8.90
2022-10-05T05:44:23.854Z,8.50
2022-10-05T05:47:56.211Z,8.13
2022-10-05T05:51:08.528Z,8.57
2022-10-05T05:54:25.569Z,9.57
2022-10-05T05:57:29.786Z,8.47
2022-10-05T06:00:24.939Z,9.93
2022-10-05T06:03:22.305Z,8.90
2022-10-05T06:06:24.391Z,8.03
2022-10-05T06:09:28.468Z,9.00
2022-10-05T06:12:19.588Z,9.40
2022-10-05T06:15:21.877Z,9.00
2022-10-05T06:18:13.643Z,8.83
2022-10-05T06:21:11.808Z,8.87
2022-10-05T06:24:05.353Z,9.40
2022-10-05T06:27:11.756Z,8.53
2022-10-05T06:30:14.770Z,8.17
2022-10-05T06:33:11.441Z,8.50
2022-10-05T06:36:08.660Z,8.17
2022-10-05T06:39:07.265Z,8.43
2022-10-05T06:42:17.765Z,8.30
2022-10-05T06:45:18.715Z,9.17
2022-10-05T06:48:17.623Z,9.37
2022-10-05T06:51:14.782Z,8.50
2022-10-05T06:54:11.847Z,8.97
2022-10-05T06:57:05.641Z,8.47
2022-10-05T07:00:01.619Z,8.23
2022-10-05T07:02:55.405Z,8.13
2022-10-05T07:05:59.174Z,8.23
2022-10-05T07:09:05.540Z,8.40
2022-10-05T07:12:06.127Z,8.00
2022-10-05T07:15:01.090Z,8.80
2022-10-05T07:17:57.108Z,9.30
2022-10-05T07:20:56.969Z,8.63
2022-10-05T07:24:20.287Z,8.27
2022-10-05T07:27:15.523Z,8.63
2022-10-05T07:30:13.019Z,9.50
2022-10-05T07:33:10.976Z,8.47
2022-10-05T07:36:22.788Z,8.30
2022-10-05T07:39:21.081Z,8.63
2022-10-05T07:42:20.001Z,8.50
2022-10-05T07:45:16.345Z,9.10
2022-10-05T07:48:11.845Z,8.30
2022-10-05T07:51:01.835Z,8.90
2022-10-05T07:53:56.940Z,9.17
2022-10-05T07:56:55.935Z,7.43
2022-10-05T07:59:56.144Z,8.07
2022-10-05T08:02:49.938Z,9.23
2022-10-05T08:05:40.145Z,9.23
2022-10-05T08:08:36.065Z,8.30
2022-10-05T08:11:41.322Z,9.20
2022-10-05T08:14:40.646Z,8.57
2022-10-05T08:17:39.535Z,8.60
2022-10-05T08:20:41.560Z,7.93
2022-10-05T08:23:36.095Z,8.93
2022-10-05T08:26:31.511Z,8.63
2022-10-05T08:29:34.926Z,8.57
2022-10-05T08:32:38.519Z,8.83
2022-10-05T08:35:33.670Z,9.57
2022-10-05T08:38:29.476Z,7.67
2022-10-05T08:41:40.332Z,8.57
2022-10-05T08:44:49.721Z,8.90
2022-10-05T08:47:56.541Z,8.40
2022-10-05T08:51:01.931Z,8.80
2022-10-05T08:54:05.572Z,9.23
2022-10-05T08:57:00.339Z,7.97
2022-10-05T09:00:03.250Z,8.50
2022-10-05T09:03:11.865Z,8.40
2022-10-05T09:06:20.014Z,8.00
2022-10-05T09:09:18.164Z,7.80
2022-10-05T09:12:18.486Z,8.47
2022-10-05T09:15:26.407Z,8.43
2022-10-05T09:18:37.931Z,8.40
2022-10-05T09:21:41.044Z,8.07
2022-10-05T09:24:48.372Z,8.00
2022-10-05T09:27:38.618Z,8.07
2022-10-05T09:30:42.298Z,8.27
2022-10-05T09:33:48.887Z,8.30
2022-10-05T09:37:01.716Z,8.50
2022-10-05T09:40:06.891Z,7.83
2022-10-05T09:43:07.518Z,7.80
2022-10-05T09:46:36.351Z,8.17
2022-10-05T09:49:48.676Z,7.63
2022-10-05T09:52:50.543Z,9.87
2022-10-05T09:55:57.055Z,9.07
2022-10-05T09:59:07.334Z,9.67
2022-10-05T10:02:05.826Z,8.50
2022-10-05T10:05:13.401Z,8.30
2022-10-05T10:08:15.974Z,9.27
2022-10-05T10:11:13.228Z,7.60
2022-10-05T10:14:14.754Z,8.40
2022-10-05T10:17:33.285Z,8.77
2022-10-05T10:20:34.962Z,7.83
2022-10-05T10:23:39.510Z,7.47
2022-10-05T10:26:48.795Z,7.60
2022-10-05T10:29:55.298Z,6.90
2022-10-05T10:33:11.218Z,6.93
2022-10-05T10:36:06.977Z,7.40
2022-10-05T10:39:01.487Z,6.77
2022-10-05T10:42:10.470Z,7.90
2022-10-05T10:45:17.835Z,7.60
2022-10-05T10:48:09.320Z,7.10
2022-10-05T10:51:20.972Z,7.33
2022-10-05T10:54:24.844Z,7.93
2022-10-05T10:57:15.926Z,7.77
2022-10-05T11:00:21.962Z,7.60
2022-10-05T11:03:32.717Z,7.93
2022-10-05T11:06:38.618Z,8.13
2022-10-05T11:09:49.722Z,8.00
2022-10-05T11:13:11.459Z,8.53
2022-10-05T11:16:28.101Z,7.90
2022-10-05T11:20:03.178Z,8.90
2022-10-05T11:22:59.390Z,8.33
2022-10-05T11:26:05.508Z,8.93
2022-10-05T11:29:08.948Z,8.20
2022-10-05T11:32:28.540Z,7.63
2022-10-05T11:35:39.459Z,8.30
2022-10-05T11:38:51.410Z,9.23
2022-10-05T11:41:59.519Z,8.77
2022-10-05T11:45:11.629Z,7.93
2022-10-05T11:48:19.578Z,8.00
2022-10-05T11:51:38.257Z,7.50
2022-10-05T11:54:58.632Z,7.00
2022-10-05T11:57:52.701Z,8.13
2022-10-05T12:00:47.163Z,7.87
2022-10-05T12:03:44.881Z,7.50
2022-10-05T12:06:49.454Z,8.10
2022-10-05T12:10:15.261Z,7.53
2022-10-05T12:13:19.686Z,6.60
2022-10-05T12:16:19.054Z,6.40
2022-10-05T12:19:15.865Z,6.10
2022-10-05T12:22:15.300Z,5.83
2022-10-05T12:25:26.338Z,6.43
2022-10-05T12:28:25.570Z,5.53
2022-10-05T12:31:20.305Z,5.80
2022-10-05T12:34:16.799Z,5.43
2022-10-05T12:37:17.822Z,4.93
2022-10-05T12:40:08.045Z,5.27
2022-10-05T12:43:09.161Z,5.77
2022-10-05T12:46:06.881Z,5.10
2022-10-05T12:49:27.233Z,5.13
2022-10-05T12:52:26.025Z,4.83
2022-10-05T12:55:17.117Z,5.87
2022-10-05T12:58:21.346Z,4.67
2022-10-05T13:01:20.448Z,4.37
2022-10-05T13:04:19.288Z,5.10
2022-10-05T13:07:26.732Z,5.27
2022-10-05T13:10:35.202Z,5.10
2022-10-05T13:13:39.887Z,5.53
2022-10-05T13:16:38.771Z,5.50
2022-10-05T13:19:38.581Z,5.20
2022-10-05T13:22:33.512Z,5.10
2022-10-05T13:25:36.695Z,5.47
2022-10-05T13:28:29.870Z,5.27
2022-10-05T13:31:35.331Z,6.10
2022-10-05T13:34:28.733Z,5.30
2022-10-05T13:37:25.786Z,5.20
2022-10-05T13:43:27.351Z,5.67
2022-10-05T13:46:25.199Z,4.90
2022-10-05T13:49:24.090Z,6.13
2022-10-05T13:52:34.585Z,5.70
2022-10-05T13:55:31.128Z,5.73
2022-10-05T13:58:29.450Z,6.10
2022-10-05T14:01:27.746Z,4.90
2022-10-05T14:04:17.994Z,5.60
2022-10-05T14:07:24.419Z,5.27
2022-10-05T14:10:19.018Z,5.57
2022-10-05T14:13:24.062Z,5.50
2022-10-05T14:16:26.113Z,5.07
2022-10-05T14:19:18.771Z,6.30
2022-10-05T14:22:13.358Z,5.43
2022-10-05T14:25:23.193Z,5.50
2022-10-05T14:28:28.302Z,5.50
2022-10-05T14:31:28.260Z,6.20
2022-10-05T14:34:35.492Z,5.43
2022-10-05T14:37:25.957Z,5.00
2022-10-05T14:40:32.664Z,5.00
2022-10-05T14:43:24.582Z,5.30
2022-10-05T14:46:29.121Z,5.10
2022-10-05T14:49:24.095Z,4.80
2022-10-05T14:52:39.554Z,4.80
2022-10-05T14:56:11.420Z,5.20
2022-10-05T14:59:17.376Z,4.90
2022-10-05T15:02:41.877Z,5.33
2022-10-05T15:05:33.333Z,5.00
2022-10-05T15:08:32.397Z,5.00
2022-10-05T15:11:34.375Z,4.60
2022-10-05T15:14:24.071Z,4.53
2022-10-05T15:17:16.176Z,4.83
2022-10-05T15:20:12.784Z,4.40
2022-10-05T15:23:09.384Z,4.70
2022-10-05T15:26:10.595Z,4.50
2022-10-05T15:29:20.581Z,5.07
2022-10-05T15:32:18.179Z,4.40
2022-10-05T15:35:21.562Z,4.57
2022-10-05T15:38:21.856Z,3.90
2022-10-05T15:41:25.232Z,3.80
2022-10-05T15:44:24.150Z,4.03
2022-10-05T15:47:20.955Z,4.10
2022-10-05T15:50:16.436Z,3.97
2022-10-05T15:53:10.223Z,3.87
2022-10-05T15:56:03.251Z,3.90
2022-10-05T15:58:59.695Z,4.17
2022-10-05T16:02:00.815Z,4.40
2022-10-05T16:05:07.094Z,4.00
2022-10-05T16:08:24.566Z,4.20
2022-10-05T16:11:19.185Z,3.90
2022-10-05T16:14:17.383Z,3.97
2022-10-05T16:17:24.113Z,4.33
2022-10-05T16:20:24.855Z,4.50
2022-10-05T16:23:20.451Z,4.50
2022-10-05T16:26:19.127Z,4.20
2022-10-05T16:29:13.145Z,4.20
2022-10-05T16:32:08.707Z,4.50
2022-10-05T16:35:10.149Z,4.50
2022-10-05T16:38:11.815Z,4.27
2022-10-05T16:41:07.936Z,4.57
2022-10-05T16:44:08.321Z,4.47
2022-10-05T16:47:27.768Z,4.93
2022-10-05T16:50:26.141Z,4.90
2022-10-05T16:53:22.849Z,4.60
2022-10-05T16:56:14.593Z,4.70
2022-10-05T16:59:13.977Z,4.90
2022-10-05T17:02:08.941Z,4.77
2022-10-05T17:05:02.697Z,5.07
2022-10-05T17:08:18.254Z,5.00
2022-10-05T17:11:17.142Z,4.90
2022-10-05T17:14:16.073Z,4.60
2022-10-05T17:17:23.069Z,4.70
2022-10-05T17:20:27.743Z,4.33
2022-10-05T17:23:37.397Z,4.73
2022-10-05T17:26:45.566Z,4.70
2022-10-05T17:29:51.317Z,4.80
2022-10-05T17:32:56.345Z,5.10
2022-10-05T17:35:52.603Z,5.10
2022-10-05T17:38:51.700Z,5.90
2022-10-05T17:41:43.266Z,5.83
2022-10-05T17:44:47.531Z,5.20
2022-10-05T17:47:53.787Z,4.93
2022-10-05T17:51:02.037Z,4.77
2022-10-05T17:54:09.475Z,4.97
2022-10-05T17:57:23.673Z,5.53
2022-10-05T18:00:34.957Z,5.20
2022-10-05T18:03:38.868Z,5.20
2022-10-05T18:06:37.138Z,5.60
2022-10-05T18:09:39.829Z,4.73
2022-10-05T18:12:48.755Z,6.77
2022-10-05T18:15:46.306Z,6.30
2022-10-05T18:18:54.545Z,5.60
2022-10-05T18:22:00.815Z,5.53
2022-10-05T18:25:05.402Z,5.60
2022-10-05T18:28:07.374Z,5.87
2022-10-05T18:31:10.094Z,5.63
2022-10-05T18:34:11.836Z,5.67
2022-10-05T18:37:12.120Z,4.50
2022-10-05T18:40:15.583Z,5.37
2022-10-05T18:43:10.196Z,4.03
2022-10-05T18:46:07.941Z,4.47
2022-10-05T18:49:01.733Z,3.57
2022-10-05T18:51:55.198Z,3.50
2022-10-05T18:54:56.304Z,4.50
2022-10-05T18:57:54.623Z,3.77
2022-10-05T19:01:00.196Z,3.97
2022-10-05T19:03:57.100Z,3.33
2022-10-05T19:06:51.526Z,3.70
2022-10-05T19:09:55.868Z,3.50
2022-10-05T19:12:56.985Z,4.30
2022-10-05T19:15:55.644Z,4.00
2022-10-05T19:18:56.313Z,4.00
2022-10-05T19:21:49.806Z,4.20
2022-10-05T19:24:53.421Z,3.70
2022-10-05T19:27:47.849Z,3.53
2022-10-05T19:30:48.239Z,3.50
2022-10-05T19:33:51.421Z,3.83
2022-10-05T19:36:46.429Z,4.00
2022-10-05T19:39:56.619Z,3.83
2022-10-05T19:43:16.020Z,3.60
2022-10-05T19:46:28.956Z,3.90
2022-10-05T19:49:37.259Z,3.70
2022-10-05T19:52:49.999Z,3.80
2022-10-05T19:55:56.895Z,3.50
2022-10-05T19:59:00.988Z,3.20
2022-10-05T20:02:00.753Z,3.53
2022-10-05T20:05:23.768Z,3.70
2022-10-05T20:08:33.965Z,3.67
2022-10-05T20:15:06.838Z,3.10
2022-10-05T20:22:08.811Z,3.43
2022-10-05T20:25:16.004Z,3.40
2022-10-05T20:28:14.549Z,3.50
2022-10-05T20:31:03.113Z,3.20
2022-10-05T20:34:05.477Z,3.53
2022-10-05T20:37:10.114Z,3.67
2022-10-05T20:40:19.321Z,3.70
2022-10-05T20:43:17.501Z,3.10
2022-10-05T20:46:19.854Z,2.97
2022-10-05T20:49:19.381Z,3.57
2022-10-05T20:52:24.007Z,3.37
2022-10-05T20:55:41.459Z,3.63
2022-10-05T20:58:39.206Z,3.40
2022-10-05T21:01:39.353Z,3.53
2022-10-05T21:04:51.604Z,3.87
2022-10-05T21:08:12.563Z,3.57
2022-10-05T21:11:27.900Z,3.53
2022-10-05T21:14:38.998Z,3.53
2022-10-05T21:21:13.380Z,3.33
2022-10-05T21:24:08.901Z,3.60
2022-10-05T21:27:32.166Z,3.27
2022-10-05T21:30:44.196Z,3.37
2022-10-05T21:34:04.637Z,4.00
2022-10-05T21:37:25.481Z,3.27
2022-10-05T21:40:43.201Z,3.40
2022-10-05T21:43:58.763Z,3.87
2022-10-05T21:47:09.402Z,3.07
2022-10-05T21:50:18.865Z,3.37
2022-10-05T21:54:06.898Z,3.60
2022-10-05T21:56:41.591Z,3.00
2022-10-05T21:59:52.405Z,3.03
2022-10-05T22:03:00.873Z,3.40
2022-10-05T22:06:05.863Z,2.90
2022-10-05T22:09:03.725Z,3.10
2022-10-05T22:12:03.490Z,3.37
2022-10-05T22:15:05.933Z,2.70
2022-10-05T22:18:03.455Z,2.73
2022-10-05T22:24:13.758Z,2.30
2022-10-05T22:27:11.343Z,2.50
2022-10-05T22:30:16.291Z,2.53
2022-10-05T22:33:18.103Z,2.70
2022-10-05T22:36:18.466Z,2.73
2022-10-05T22:39:28.269Z,2.60
2022-10-05T22:45:46.621Z,2.80
2022-10-05T22:49:05.930Z,3.10
2022-10-05T22:52:12.914Z,3.17
2022-10-05T22:55:18.464Z,3.10
2022-10-05T22:58:38.430Z,2.60
2022-10-05T23:01:58.579Z,2.07
2022-10-05T23:05:14.283Z,2.50
2022-10-05T23:08:26.831Z,1.93
2022-10-05T23:11:32.185Z,2.20
2022-10-05T23:14:45.913Z,2.40
2022-10-05T23:18:01.259Z,1.63
2022-10-05T23:21:25.154Z,2.73
2022-10-05T23:24:26.716Z,1.93
2022-10-05T23:27:18.407Z,1.40
2022-10-05T23:30:24.995Z,1.90
2022-10-05T23:33:48.537Z,1.57
2022-10-05T23:39:55.491Z,1.13
2022-10-05T23:42:53.432Z,1.20
2022-10-05T23:46:03.583Z,1.10
2022-10-05T23:49:26.218Z,1.10
2022-10-05T23:52:18.427Z,1.20
2022-10-05T23:55:32.647Z,1.17
2022-10-05T23:58:34.332Z,0.90
